Time;durP1;ratioP1;P1;durP2;ratioP2;P2;SDS_P1;SDS_P2;PMS_P1;PMS_P2;Temp;Humidity;BMP_temperature;BMP_pressure;BME280_temperature;BME280_humidity;BME280_pressure;Samples;Min_cycle;Max_cycle;Signal;HPM_P1;HPM_P2
2022/04/15 00:01:46;;;;;;;22.60;10.90;;;;;;;;;;5040543;28;20107;-73
2022/04/15 00:04:13;;;;;;;16.95;9.75;;;;;;;;;;5041786;28;20061;-73
2022/04/15 00:06:43;;;;;;;17.98;10.27;;;;;;;;;;5040769;28;20140;-72
2022/04/15 00:09:10;;;;;;;23.13;11.40;;;;;;;;;;5038175;28;20140;-72
2022/04/15 00:11:37;;;;;;;21.15;9.77;;;;;;;;;;5038137;28;20522;-73
2022/04/15 00:14:11;;;;;;;19.50;9.95;;;;;;;;;;5037590;28;20084;-72
2022/04/15 00:16:38;;;;;;;21.30;9.30;;;;;;;;;;5040579;28;20165;-73
2022/04/15 00:19:04;;;;;;;19.15;9.40;;;;;;;;;;5041527;28;20136;-72
2022/04/15 00:21:37;;;;;;;22.55;11.02;;;;;;;;;;5040378;28;20045;-73
2022/04/15 00:24:03;;;;;;;21.63;10.48;;;;;;;;;;5038822;28;20535;-72
2022/04/15 00:26:30;;;;;;;26.42;11.55;;;;;;;;;;5039503;28;20571;-73
2022/04/15 00:28:58;;;;;;;;;;;;;;;;;;5037311;28;20084;-72
2022/04/15 00:31:24;;;;;;;17.42;9.80;;;;;;;;;;5040378;28;19968;-73
2022/04/15 00:33:51;;;;;;;24.95;11.05;;;;;;;;;;5037513;28;20044;-73
2022/04/15 00:36:18;;;;;;;20.85;10.50;;;;;;;;;;5038025;28;20080;-73
2022/04/15 00:38:44;;;;;;;24.65;10.68;;;;;;;;;;5037565;28;20160;-73
2022/04/15 00:41:15;;;;;;;18.63;10.23;;;;;;;;;;5039024;28;20328;-72
2022/04/15 00:43:44;;;;;;;21.15;10.48;;;;;;;;;;5040129;28;20077;-72
2022/04/15 00:46:11;;;;;;;25.00;11.02;;;;;;;;;;5039262;28;20133;-73
2022/04/15 00:48:37;;;;;;;21.60;9.87;;;;;;;;;;5039770;28;20168;-73
2022/04/15 00:51:05;;;;;;;19.73;10.40;;;;;;;;;;5038271;28;20083;-73
2022/04/15 00:53:32;;;;;;;18.50;9.50;;;;;;;;;;5042054;28;20114;-72
2022/04/15 00:56:01;;;;;;;18.27;10.38;;;;;;;;;;5037196;28;20128;-72
2022/04/15 00:58:28;;;;;;;20.08;9.68;;;;;;;;;;5040263;28;20080;-73
2022/04/15 01:00:57;;;;;;;16.85;9.48;;;;;;;;;;5041811;28;20572;-73
2022/04/15 01:03:24;;;;;;;18.13;9.85;;;;;;;;;;5038049;28;20107;-72
2022/04/15 01:06:00;;;;;;;22.67;8.95;;;;;;;;;;5036590;28;20059;-73
2022/04/15 01:08:28;;;;;;;20.02;9.07;;;;;;;;;;5037063;28;20049;-73
2022/04/15 01:10:56;;;;;;;;;;;;;;;;;;5043330;28;20048;-72
2022/04/15 01:13:24;;;;;;;19.38;10.02;;;;;;;;;;5033637;28;20023;-72
2022/04/15 01:15:53;;;;;;;19.67;9.95;;;;;;;;;;5039361;28;20056;-73
2022/04/15 01:18:20;;;;;;;19.17;9.00;;;;;;;;;;5035717;28;20452;-73
2022/04/15 01:20:51;;;;;;;19.13;9.48;;;;;;;;;;5041928;28;20512;-73
2022/04/15 01:23:17;;;;;;;19.80;9.15;;;;;;;;;;5036612;28;20132;-73
2022/04/15 01:25:44;;;;;;;16.67;9.35;;;;;;;;;;5040292;28;20473;-73
2022/04/15 01:28:11;;;;;;;16.10;9.10;;;;;;;;;;5037966;28;20049;-73
2022/04/15 01:30:38;;;;;;;20.30;9.73;;;;;;;;;;5042060;28;20144;-73
2022/04/15 01:33:04;;;;;;;15.32;8.60;;;;;;;;;;5035218;28;20088;-73
2022/04/15 01:35:33;;;;;;;;;;;;;;;;;;5035834;28;20137;-73
2022/04/15 01:38:00;;;;;;;18.90;9.15;;;;;;;;;;5037356;28;19931;-73
2022/04/15 01:40:26;;;;;;;18.63;9.50;;;;;;;;;;5039310;28;20080;-73
2022/04/15 01:42:55;;;;;;;13.70;8.73;;;;;;;;;;5041249;28;20048;-73
2022/04/15 01:45:21;;;;;;;15.35;8.93;;;;;;;;;;5038140;28;20496;-73
2022/04/15 01:47:49;;;;;;;15.85;8.90;;;;;;;;;;5041269;28;20485;-72
2022/04/15 01:50:30;;;;;;;19.13;8.75;;;;;;;;;;5040024;28;20081;-73
2022/04/15 01:52:58;;;;;;;14.73;8.45;;;;;;;;;;5040642;28;20140;-73
2022/04/15 01:55:25;;;;;;;17.77;8.85;;;;;;;;;;5046003;28;20053;-72
2022/04/15 01:57:52;;;;;;;19.05;9.15;;;;;;;;;;5039549;28;20083;-73
2022/04/15 02:00:18;;;;;;;21.02;8.77;;;;;;;;;;5045243;28;20092;-73
2022/04/15 02:02:51;;;;;;;15.48;9.18;;;;;;;;;;5043817;28;20487;-73
2022/04/15 02:05:17;;;;;;;17.98;9.15;;;;;;;;;;5042341;28;20132;-73
2022/04/15 02:07:44;;;;;;;20.00;8.77;;;;;;;;;;5041924;28;20089;-73
2022/04/15 02:10:17;;;;;;;18.70;8.35;;;;;;;;;;5041904;28;20145;-73
2022/04/15 02:12:43;;;;;;;17.20;9.18;;;;;;;;;;5043049;28;20128;-73
2022/04/15 02:15:10;;;;;;;14.57;8.75;;;;;;;;;;5040947;28;20049;-73
2022/04/15 02:17:39;;;;;;;19.85;8.13;;;;;;;;;;5043415;28;20077;-72
2022/04/15 02:20:06;;;;;;;16.83;8.60;;;;;;;;;;5044411;28;20135;-73
2022/04/15 02:22:32;;;;;;;17.50;8.25;;;;;;;;;;5042124;28;20141;-73
2022/04/15 02:25:00;;;;;;;13.38;7.93;;;;;;;;;;5044729;28;20064;-73
2022/04/15 02:27:27;;;;;;;19.45;8.15;;;;;;;;;;5041974;28;20071;-73
2022/04/15 02:29:53;;;;;;;22.85;8.52;;;;;;;;;;5043013;28;20109;-73
2022/04/15 02:32:20;;;;;;;17.08;8.63;;;;;;;;;;5044864;28;20091;-72
2022/04/15 02:34:46;;;;;;;16.58;8.45;;;;;;;;;;5043174;28;20404;-73
2022/04/15 02:37:14;;;;;;;16.75;8.50;;;;;;;;;;5042052;28;20136;-73
2022/04/15 02:39:41;;;;;;;15.15;8.55;;;;;;;;;;5039693;28;20060;-72
2022/04/15 02:42:08;;;;;;;16.48;7.60;;;;;;;;;;5042030;28;20088;-73
2022/04/15 02:44:36;;;;;;;12.48;7.50;;;;;;;;;;5038881;28;20143;-73
2022/04/15 02:47:03;;;;;;;17.42;8.38;;;;;;;;;;5044357;28;20056;-72
2022/04/15 02:49:30;;;;;;;14.07;7.25;;;;;;;;;;5035616;28;20080;-73
2022/04/15 02:51:56;;;;;;;14.02;7.65;;;;;;;;;;5040484;28;20128;-73
2022/04/15 02:54:24;;;;;;;20.98;8.63;;;;;;;;;;5045441;28;20487;-73
2022/04/15 02:56:53;;;;;;;14.45;7.53;;;;;;;;;;5042291;28;20052;-73
2022/04/15 02:59:20;;;;;;;11.98;7.57;;;;;;;;;;5043066;28;20048;-72
2022/04/15 03:01:49;;;;;;;15.68;7.35;;;;;;;;;;5041674;28;20049;-72
2022/04/15 03:04:16;;;;;;;12.73;7.13;;;;;;;;;;5040740;28;20053;-73
2022/04/15 03:06:42;;;;;;;12.68;7.32;;;;;;;;;;5037688;28;20128;-73
2022/04/15 03:09:10;;;;;;;11.40;7.13;;;;;;;;;;5041220;28;20508;-72
2022/04/15 03:11:38;;;;;;;9.40;5.30;;;;;;;;;;5041062;28;20052;-73
2022/04/15 03:14:05;;;;;;;12.75;7.13;;;;;;;;;;5044330;28;20088;-73
2022/04/15 03:16:33;;;;;;;11.05;7.53;;;;;;;;;;5042115;28;20128;-73
2022/04/15 03:18:59;;;;;;;13.05;7.10;;;;;;;;;;5037058;28;20059;-73
2022/04/15 03:21:26;;;;;;;13.57;7.55;;;;;;;;;;5043078;28;20080;-72
2022/04/15 03:23:53;;;;;;;16.77;7.30;;;;;;;;;;5042841;28;20080;-73
2022/04/15 03:26:21;;;;;;;12.98;7.18;;;;;;;;;;5042380;28;20045;-73
2022/04/15 03:28:48;;;;;;;13.30;6.53;;;;;;;;;;5044232;28;20060;-73
2022/04/15 03:31:17;;;;;;;12.77;7.38;;;;;;;;;;5041011;28;20077;-73
2022/04/15 03:33:44;;;;;;;13.73;7.15;;;;;;;;;;5041758;28;20049;-72
2022/04/15 03:36:11;;;;;;;13.90;7.40;;;;;;;;;;5040724;28;20073;-73
2022/04/15 03:38:38;;;;;;;12.03;5.97;;;;;;;;;;5041498;28;20108;-73
2022/04/15 03:41:04;;;;;;;16.70;7.60;;;;;;;;;;5040330;28;20095;-73
2022/04/15 03:43:32;;;;;;;15.63;7.70;;;;;;;;;;5042273;28;20719;-73
2022/04/15 03:45:58;;;;;;;10.57;6.68;;;;;;;;;;5038856;28;20080;-72
2022/04/15 03:48:26;;;;;;;12.93;7.35;;;;;;;;;;5040571;28;20057;-73
2022/04/15 03:50:53;;;;;;;12.73;6.77;;;;;;;;;;5040299;28;20132;-73
2022/04/15 03:53:20;;;;;;;12.32;6.38;;;;;;;;;;5041574;28;20084;-73
2022/04/15 03:55:46;;;;;;;12.80;6.35;;;;;;;;;;5039795;28;20602;-73
2022/04/15 03:58:16;;;;;;;14.45;6.50;;;;;;;;;;5039006;28;20092;-72
2022/04/15 04:00:43;;;;;;;10.88;6.20;;;;;;;;;;5038530;28;20042;-73
2022/04/15 04:03:10;;;;;;;11.68;6.35;;;;;;;;;;5041311;28;20045;-73
2022/04/15 04:05:36;;;;;;;12.43;6.35;;;;;;;;;;5043916;28;20046;-73
2022/04/15 04:08:03;;;;;;;11.95;6.60;;;;;;;;;;5042983;28;20072;-72
2022/04/15 04:10:36;;;;;;;13.10;7.03;;;;;;;;;;5040874;28;20583;-73
2022/04/15 04:13:03;;;;;;;12.73;6.47;;;;;;;;;;5037091;28;20085;-73
2022/04/15 04:15:30;;;;;;;;;;;;;;;;;;5040035;28;20055;-72
2022/04/15 04:17:57;;;;;;;11.07;6.15;;;;;;;;;;5039482;28;20020;-73
2022/04/15 04:20:24;;;;;;;10.25;6.10;;;;;;;;;;5039791;28;20131;-72
2022/04/15 04:22:50;;;;;;;13.18;6.50;;;;;;;;;;5040713;28;20045;-72
2022/04/15 04:25:23;;;;;;;11.57;5.82;;;;;;;;;;5039287;28;20053;-73
2022/04/15 04:27:49;;;;;;;11.73;5.63;;;;;;;;;;5040076;28;20099;-73
2022/04/15 04:30:16;;;;;;;11.40;6.25;;;;;;;;;;5039107;28;20136;-73
2022/04/15 04:32:49;;;;;;;10.00;5.72;;;;;;;;;;5039874;28;20072;-72
2022/04/15 04:35:20;;;;;;;8.63;6.07;;;;;;;;;;5043365;28;20053;-72
2022/04/15 04:37:47;;;;;;;15.90;5.40;;;;;;;;;;5039386;28;20052;-72
2022/04/15 04:40:14;;;;;;;10.23;5.37;;;;;;;;;;5041652;28;20102;-73
2022/04/15 04:42:41;;;;;;;8.48;5.75;;;;;;;;;;5028806;28;20140;-73
2022/04/15 04:45:10;;;;;;;13.77;5.80;;;;;;;;;;5037673;28;20136;-73
2022/04/15 04:47:40;;;;;;;12.15;5.50;;;;;;;;;;5039424;28;20053;-73
2022/04/15 04:50:08;;;;;;;12.88;6.00;;;;;;;;;;5040827;28;20056;-73
2022/04/15 04:52:38;;;;;;;11.40;6.28;;;;;;;;;;5038677;28;20136;-73
2022/04/15 04:55:06;;;;;;;9.65;5.40;;;;;;;;;;5039077;28;20476;-72
2022/04/15 04:57:32;;;;;;;11.40;5.75;;;;;;;;;;5039850;28;20103;-72
2022/04/15 04:59:59;;;;;;;10.18;5.35;;;;;;;;;;5038447;28;20107;-73
2022/04/15 05:02:25;;;;;;;13.90;6.35;;;;;;;;;;5030502;28;20135;-72
2022/04/15 05:04:52;;;;;;;12.65;5.95;;;;;;;;;;5042665;28;20469;-73
2022/04/15 05:07:18;;;;;;;10.30;5.47;;;;;;;;;;5038143;28;20416;-73
2022/04/15 05:09:45;;;;;;;11.70;6.25;;;;;;;;;;5039111;28;20045;-73
2022/04/15 05:12:11;;;;;;;12.82;5.88;;;;;;;;;;5036381;28;20123;-73
2022/04/15 05:14:38;;;;;;;10.47;6.10;;;;;;;;;;5041306;28;20500;-73
2022/04/15 05:17:11;;;;;;;16.55;6.18;;;;;;;;;;5038639;28;20542;-73
2022/04/15 05:19:42;;;;;;;9.68;5.43;;;;;;;;;;5038653;28;20057;-73
2022/04/15 05:22:09;;;;;;;8.70;5.45;;;;;;;;;;5040770;28;20115;-73
2022/04/15 05:24:37;;;;;;;10.18;6.20;;;;;;;;;;5038786;28;20080;-72
2022/04/15 05:27:05;;;;;;;13.73;6.35;;;;;;;;;;5036445;28;20103;-72
2022/04/15 05:29:31;;;;;;;12.15;5.90;;;;;;;;;;5039463;28;20174;-73
2022/04/15 05:32:05;;;;;;;9.35;5.72;;;;;;;;;;5036973;28;20536;-72
2022/04/15 05:34:31;;;;;;;11.02;5.53;;;;;;;;;;5038673;28;20061;-73
2022/04/15 05:36:58;;;;;;;9.07;5.47;;;;;;;;;;5037115;28;20084;-72
2022/04/15 05:39:24;;;;;;;10.85;5.80;;;;;;;;;;5044228;28;20080;-73
2022/04/15 05:41:51;;;;;;;10.20;5.57;;;;;;;;;;5027736;28;20167;-72
2022/04/15 05:44:17;;;;;;;10.30;4.90;;;;;;;;;;5027900;28;20079;-72
2022/04/15 05:46:50;;;;;;;12.40;5.75;;;;;;;;;;5040604;28;20053;-73
2022/04/15 05:49:18;;;;;;;10.77;5.43;;;;;;;;;;5036896;28;20562;-73
2022/04/15 05:51:47;;;;;;;8.95;5.30;;;;;;;;;;5039440;28;20049;-73
2022/04/15 05:54:14;;;;;;;8.52;4.55;;;;;;;;;;5034873;28;20568;-73
2022/04/15 05:56:40;;;;;;;9.80;4.88;;;;;;;;;;5038865;28;20103;-73
2022/04/15 05:59:07;;;;;;;8.18;5.18;;;;;;;;;;5038612;28;20143;-73
2022/04/15 06:01:34;;;;;;;17.67;5.87;;;;;;;;;;5039143;28;20575;-73
2022/04/15 06:04:00;;;;;;;9.27;5.70;;;;;;;;;;5040844;28;20406;-72
2022/04/15 06:06:27;;;;;;;9.47;4.43;;;;;;;;;;5037873;28;20069;-73
2022/04/15 06:09:00;;;;;;;9.80;5.10;;;;;;;;;;5038035;28;20824;-72
2022/04/15 06:11:26;;;;;;;9.35;4.88;;;;;;;;;;5036142;28;20076;-72
2022/04/15 06:13:53;;;;;;;9.52;5.05;;;;;;;;;;5044516;28;20081;-72
2022/04/15 06:16:22;;;;;;;8.68;4.90;;;;;;;;;;5035718;28;20072;-72
2022/04/15 06:18:49;;;;;;;9.48;5.45;;;;;;;;;;5037322;28;20400;-72
2022/04/15 06:21:36;;;;;;;10.80;5.60;;;;;;;;;;5035031;28;20061;-73
2022/04/15 06:24:09;;;;;;;11.85;5.40;;;;;;;;;;5041803;28;20081;-73
2022/04/15 06:26:35;;;;;;;8.18;4.78;;;;;;;;;;5038904;28;20096;-73
2022/04/15 06:29:02;;;;;;;13.65;6.03;;;;;;;;;;5040223;28;20049;-73
2022/04/15 06:31:28;;;;;;;9.60;5.20;;;;;;;;;;5037571;28;21010;-73
2022/04/15 06:33:56;;;;;;;12.63;5.63;;;;;;;;;;5037373;28;20061;-73
2022/04/15 06:36:23;;;;;;;;;;;;;;;;;;5040691;28;20504;-73
2022/04/15 06:38:56;;;;;;;11.93;5.03;;;;;;;;;;5029862;28;20399;-73
2022/04/15 06:41:22;;;;;;;13.68;5.88;;;;;;;;;;5040685;28;20157;-72
2022/04/15 06:43:49;;;;;;;10.05;5.13;;;;;;;;;;5041769;28;20132;-73
2022/04/15 06:46:16;;;;;;;12.65;5.13;;;;;;;;;;5039351;28;20049;-73
2022/04/15 06:48:43;;;;;;;9.15;4.85;;;;;;;;;;5041318;28;20106;-73
2022/04/15 06:51:10;;;;;;;8.20;5.13;;;;;;;;;;5040759;28;20081;-73
2022/04/15 06:53:37;;;;;;;8.25;4.63;;;;;;;;;;5038818;28;20135;-73
2022/04/15 06:56:03;;;;;;;7.22;4.30;;;;;;;;;;5041763;28;20571;-73
2022/04/15 06:58:36;;;;;;;10.60;5.30;;;;;;;;;;5039448;28;20088;-73
2022/04/15 07:01:03;;;;;;;8.70;4.47;;;;;;;;;;5041782;28;20542;-73
2022/04/15 07:03:29;;;;;;;7.78;4.78;;;;;;;;;;5044090;28;20125;-73
2022/04/15 07:05:55;;;;;;;8.43;4.60;;;;;;;;;;5039501;28;20766;-73
2022/04/15 07:08:22;;;;;;;8.93;4.75;;;;;;;;;;5037596;28;20056;-73
2022/04/15 07:10:49;;;;;;;6.70;4.38;;;;;;;;;;5044596;28;20049;-73
2022/04/15 07:13:16;;;;;;;8.48;4.55;;;;;;;;;;5040969;28;20571;-73
2022/04/15 07:15:42;;;;;;;7.17;4.17;;;;;;;;;;5043198;28;20056;-73
2022/04/15 07:18:09;;;;;;;8.70;4.43;;;;;;;;;;5040984;28;20106;-74
2022/04/15 07:20:35;;;;;;;8.57;4.32;;;;;;;;;;5042056;28;20527;-74
2022/04/15 07:23:02;;;;;;;13.63;4.82;;;;;;;;;;5039848;28;20103;-75
2022/04/15 07:25:29;;;;;;;10.07;4.60;;;;;;;;;;5040114;28;20056;-74
2022/04/15 07:27:59;;;;;;;7.32;4.20;;;;;;;;;;5040168;28;20752;-74
2022/04/15 07:30:27;;;;;;;10.48;4.93;;;;;;;;;;5038643;28;20057;-73
2022/04/15 07:32:53;;;;;;;6.43;3.90;;;;;;;;;;5040796;28;20132;-73
2022/04/15 07:35:20;;;;;;;9.88;4.55;;;;;;;;;;5041570;28;20080;-74
2022/04/15 07:37:47;;;;;;;9.18;4.07;;;;;;;;;;5039691;28;20049;-74
2022/04/15 07:40:14;;;;;;;9.88;3.92;;;;;;;;;;5041017;28;20566;-74
2022/04/15 07:42:41;;;;;;;11.07;4.20;;;;;;;;;;5044293;28;20505;-74
2022/04/15 07:45:08;;;;;;;7.63;4.07;;;;;;;;;;5040857;28;20076;-74
2022/04/15 07:47:34;;;;;;;5.90;3.53;;;;;;;;;;5041309;28;20061;-74
2022/04/15 07:50:15;;;;;;;10.45;4.00;;;;;;;;;;5044887;28;20080;-74
2022/04/15 07:52:43;;;;;;;8.50;4.07;;;;;;;;;;5041252;28;20124;-74
2022/04/15 07:55:09;;;;;;;7.65;3.63;;;;;;;;;;5037751;28;20048;-75
2022/04/15 07:57:36;;;;;;;6.43;3.60;;;;;;;;;;5040015;28;20048;-75
2022/04/15 08:00:09;;;;;;;7.35;4.03;;;;;;;;;;5037899;28;20144;-75
2022/04/15 08:02:37;;;;;;;6.93;3.80;;;;;;;;;;5037716;28;20106;-75
2022/04/15 08:05:04;;;;;;;11.70;4.07;;;;;;;;;;5036990;28;20051;-75
2022/04/15 08:07:31;;;;;;;5.82;3.50;;;;;;;;;;5035729;28;20053;-75
2022/04/15 08:09:57;;;;;;;6.57;3.75;;;;;;;;;;5039121;28;20048;-75
2022/04/15 08:12:23;;;;;;;7.80;3.50;;;;;;;;;;5041529;28;20045;-76
2022/04/15 08:14:51;;;;;;;8.93;3.88;;;;;;;;;;5040957;28;20080;-75
2022/04/15 08:17:18;;;;;;;7.80;4.10;;;;;;;;;;5037252;28;20052;-76
2022/04/15 08:19:44;;;;;;;8.15;3.90;;;;;;;;;;5039476;28;20140;-75
2022/04/15 08:22:11;;;;;;;5.95;3.33;;;;;;;;;;5036958;28;20072;-75
2022/04/15 08:24:42;;;;;;;6.03;3.55;;;;;;;;;;5044490;28;20145;-75
2022/04/15 08:27:09;;;;;;;5.97;3.67;;;;;;;;;;5036680;28;20051;-75
2022/04/15 08:29:38;;;;;;;7.20;3.38;;;;;;;;;;5035951;28;20122;-76
2022/04/15 08:32:07;;;;;;;6.60;3.50;;;;;;;;;;5039946;28;20696;-75
2022/04/15 08:34:35;;;;;;;9.07;3.38;;;;;;;;;;5039231;28;20056;-75
2022/04/15 08:37:02;;;;;;;6.60;3.20;;;;;;;;;;5041572;28;20151;-75
2022/04/15 08:39:29;;;;;;;5.28;3.30;;;;;;;;;;5037599;28;20089;-75
2022/04/15 08:41:56;;;;;;;6.75;3.60;;;;;;;;;;5040792;28;20059;-75
2022/04/15 08:44:24;;;;;;;4.85;2.80;;;;;;;;;;5040880;28;20081;-76
2022/04/15 08:46:51;;;;;;;6.22;2.97;;;;;;;;;;5039080;28;20148;-75
2022/04/15 08:49:19;;;;;;;4.83;2.83;;;;;;;;;;5042111;28;20151;-75
2022/04/15 08:51:47;;;;;;;7.00;3.15;;;;;;;;;;5039288;28;20061;-75
2022/04/15 08:54:14;;;;;;;5.70;2.67;;;;;;;;;;5040187;28;20091;-75
2022/04/15 08:56:41;;;;;;;7.13;2.80;;;;;;;;;;5038567;28;20080;-75
2022/04/15 08:59:07;;;;;;;6.93;2.92;;;;;;;;;;5039024;28;20160;-76
2022/04/15 09:01:34;;;;;;;8.57;3.20;;;;;;;;;;5037524;28;20160;-75
2022/04/15 09:04:02;;;;;;;6.85;2.80;;;;;;;;;;5039057;28;20085;-75
2022/04/15 09:06:35;;;;;;;3.90;1.98;;;;;;;;;;5036509;28;20128;-75
2022/04/15 09:09:07;;;;;;;4.70;2.63;;;;;;;;;;5038981;28;20792;-75
2022/04/15 09:11:35;;;;;;;8.50;2.75;;;;;;;;;;5023739;28;20080;-76
2022/04/15 09:14:08;;;;;;;4.75;2.88;;;;;;;;;;5038407;28;20092;-76
2022/04/15 09:16:47;;;;;;;5.35;3.00;;;;;;;;;;5037431;28;20132;-76
2022/04/15 09:19:14;;;;;;;4.05;2.58;;;;;;;;;;5041169;28;20052;-76
2022/04/15 09:21:42;;;;;;;8.65;3.40;;;;;;;;;;5043654;28;20107;-76
2022/04/15 09:24:10;;;;;;;5.95;3.22;;;;;;;;;;5041927;28;20132;-77
2022/04/15 09:26:44;;;;;;;4.20;2.63;;;;;;;;;;5038935;28;20095;-76
2022/04/15 09:29:11;;;;;;;5.38;2.78;;;;;;;;;;5041978;28;20124;-77
2022/04/15 09:31:38;;;;;;;9.15;3.10;;;;;;;;;;5039395;28;20128;-77
2022/04/15 09:34:06;;;;;;;5.32;2.50;;;;;;;;;;5035889;28;20053;-77
2022/04/15 09:36:34;;;;;;;5.38;2.47;;;;;;;;;;5037992;28;20508;-76
2022/04/15 09:39:02;;;;;;;5.18;2.58;;;;;;;;;;5040775;28;20140;-77
2022/04/15 09:41:32;;;;;;;6.03;2.50;;;;;;;;;;5038327;28;20799;-76
2022/04/15 09:43:59;;;;;;;4.13;2.53;;;;;;;;;;5038027;28;20048;-76
2022/04/15 09:46:29;;;;;;;6.18;2.78;;;;;;;;;;5038644;28;20080;-76
2022/04/15 09:48:57;;;;;;;4.68;2.47;;;;;;;;;;5037620;28;20050;-76
2022/04/15 09:51:24;;;;;;;5.05;2.70;;;;;;;;;;5037685;28;20143;-76
2022/04/15 09:53:55;;;;;;;6.72;2.60;;;;;;;;;;5039975;28;20083;-77
2022/04/15 09:56:22;;;;;;;6.45;2.50;;;;;;;;;;5037706;28;20472;-77
2022/04/15 09:58:54;;;;;;;6.15;2.72;;;;;;;;;;5037094;28;20137;-77
2022/04/15 10:01:22;;;;;;;5.38;2.30;;;;;;;;;;5039724;28;20084;-76
2022/04/15 10:03:49;;;;;;;7.00;2.03;;;;;;;;;;5040870;28;20152;-77
2022/04/15 10:06:23;;;;;;;3.90;1.92;;;;;;;;;;5040407;28;20137;-77
2022/04/15 10:09:02;;;;;;;4.18;2.13;;;;;;;;;;5035563;28;20053;-78
2022/04/15 10:11:35;;;;;;;3.97;2.53;;;;;;;;;;5040920;28;20135;-76
2022/04/15 10:14:02;;;;;;;5.97;2.45;;;;;;;;;;5045748;28;20106;-77
2022/04/15 10:16:33;;;;;;;4.53;2.35;;;;;;;;;;5041792;28;20057;-76
2022/04/15 10:19:01;;;;;;;4.00;2.50;;;;;;;;;;5042871;28;20146;-76
2022/04/15 10:21:37;;;;;;;7.03;2.72;;;;;;;;;;5043477;28;20587;-76
2022/04/15 10:24:04;;;;;;;9.75;2.92;;;;;;;;;;5044540;28;20080;-74
2022/04/15 10:26:35;;;;;;;7.78;2.90;;;;;;;;;;5043720;28;20153;-74
2022/04/15 10:29:03;;;;;;;5.28;2.70;;;;;;;;;;5045498;28;20500;-73
2022/04/15 10:31:36;;;;;;;4.57;2.45;;;;;;;;;;5045449;28;20136;-74
2022/04/15 10:34:08;;;;;;;8.10;2.60;;;;;;;;;;5040645;28;20493;-73
2022/04/15 10:36:35;;;;;;;5.05;2.60;;;;;;;;;;5041031;28;20088;-74
2022/04/15 10:39:02;;;;;;;;;;;;;;;;;;5040234;28;20102;-76
2022/04/15 10:41:42;;;;;;;4.10;2.00;;;;;;;;;;5037395;28;20026;-74
2022/04/15 10:44:12;;;;;;;3.80;2.47;;;;;;;;;;5042850;28;20451;-73
2022/04/15 10:46:39;;;;;;;4.72;2.25;;;;;;;;;;5040451;28;20049;-73
2022/04/15 10:49:26;;;;;;;6.93;2.65;;;;;;;;;;5041401;28;20455;-73
2022/04/15 10:52:00;;;;;;;4.15;2.58;;;;;;;;;;5043040;28;20144;-73
2022/04/15 10:54:33;;;;;;;5.93;2.60;;;;;;;;;;5043315;28;20053;-73
2022/04/15 10:57:10;;;;;;;6.05;2.50;;;;;;;;;;5043482;28;20523;-76
2022/04/15 11:02:48;;;;;;;4.15;2.40;;;;;;;;;;5043842;28;20140;-76
2022/04/15 11:05:30;;;;;;;7.80;2.30;;;;;;;;;;5047273;28;20056;-75
2022/04/15 11:08:05;;;;;;;5.05;2.72;;;;;;;;;;5043647;28;20137;-76
2022/04/15 11:10:42;;;;;;;3.83;2.22;;;;;;;;;;5040670;28;20145;-73
2022/04/15 11:13:25;;;;;;;4.80;2.40;;;;;;;;;;5040260;28;20057;-73
2022/04/15 11:15:55;;;;;;;3.40;2.00;;;;;;;;;;5044837;28;20111;-73
2022/04/15 11:18:22;;;;;;;4.90;2.60;;;;;;;;;;5044251;28;20114;-73
2022/04/15 11:20:49;;;;;;;4.43;2.22;;;;;;;;;;5040328;28;20452;-73
2022/04/15 11:23:16;;;;;;;4.68;2.10;;;;;;;;;;5042326;28;20136;-73
2022/04/15 11:25:43;;;;;;;4.93;2.25;;;;;;;;;;5041774;28;20128;-73
2022/04/15 11:28:09;;;;;;;6.43;2.60;;;;;;;;;;5043137;28;20538;-74
2022/04/15 11:30:36;;;;;;;4.47;2.17;;;;;;;;;;5038562;28;20448;-73
2022/04/15 11:33:04;;;;;;;3.92;2.08;;;;;;;;;;5039432;28;20061;-73
2022/04/15 11:35:35;;;;;;;3.55;2.20;;;;;;;;;;5041621;28;20834;-73
2022/04/15 11:38:09;;;;;;;4.40;2.25;;;;;;;;;;5041148;28;20131;-73
2022/04/15 11:40:36;;;;;;;5.43;2.40;;;;;;;;;;5043437;28;20140;-73
2022/04/15 11:43:09;;;;;;;3.70;2.65;;;;;;;;;;5041911;28;20072;-73
2022/04/15 11:45:41;;;;;;;7.47;2.45;;;;;;;;;;5039387;28;20131;-73
2022/04/15 11:48:18;;;;;;;3.08;2.08;;;;;;;;;;5040366;28;20152;-73
2022/04/15 11:50:55;;;;;;;6.95;2.70;;;;;;;;;;5042842;28;20147;-72
2022/04/15 11:53:22;;;;;;;3.45;2.15;;;;;;;;;;5040319;28;20470;-73
2022/04/15 11:55:52;;;;;;;3.08;1.75;;;;;;;;;;5039975;28;20140;-73
2022/04/15 11:58:20;;;;;;;5.82;2.40;;;;;;;;;;5039730;28;20077;-73
2022/04/15 12:00:57;;;;;;;2.85;1.92;;;;;;;;;;5043818;28;20420;-73
2022/04/15 12:03:25;;;;;;;4.95;2.80;;;;;;;;;;5043550;28;20080;-74
2022/04/15 12:05:52;;;;;;;4.93;2.53;;;;;;;;;;5041290;28;20084;-74
2022/04/15 12:08:19;;;;;;;3.88;2.08;;;;;;;;;;5037952;28;20132;-73
2022/04/15 12:10:47;;;;;;;5.43;1.75;;;;;;;;;;5042024;28;20049;-74
2022/04/15 12:13:14;;;;;;;4.00;1.73;;;;;;;;;;5029052;28;20156;-73
2022/04/15 12:15:40;;;;;;;3.67;2.10;;;;;;;;;;5039574;28;20049;-74
2022/04/15 12:18:15;;;;;;;3.53;2.17;;;;;;;;;;5039199;28;20228;-73
2022/04/15 12:20:41;;;;;;;5.65;2.20;;;;;;;;;;5038429;28;20146;-73
2022/04/15 12:23:13;;;;;;;4.65;1.95;;;;;;;;;;5040639;28;20085;-73
2022/04/15 12:31:29;;;;;;;4.43;2.05;;;;;;;;;;5039301;28;20096;-75
2022/04/15 12:33:56;;;;;;;3.22;1.92;;;;;;;;;;5040076;28;20103;-73
2022/04/15 12:36:23;;;;;;;3.50;1.90;;;;;;;;;;5038636;28;20469;-74
2022/04/15 12:38:56;;;;;;;2.97;1.90;;;;;;;;;;5036100;28;20128;-73
2022/04/15 12:41:23;;;;;;;3.33;2.00;;;;;;;;;;5043494;28;20131;-74
2022/04/15 12:43:49;;;;;;;3.75;1.95;;;;;;;;;;5037131;28;20131;-74
2022/04/15 12:46:16;;;;;;;2.28;1.60;;;;;;;;;;5039122;28;20135;-75
2022/04/15 12:48:50;;;;;;;2.60;1.65;;;;;;;;;;5040920;28;20056;-75
2022/04/15 12:51:17;;;;;;;4.13;2.08;;;;;;;;;;5037937;28;20092;-74
2022/04/15 12:53:44;;;;;;;;;;;;;;;;;;5039313;28;20128;-75
2022/04/15 12:56:13;;;;;;;3.25;2.10;;;;;;;;;;5039502;28;19964;-74
2022/04/15 12:58:50;;;;;;;7.18;1.90;;;;;;;;;;5041193;28;20063;-74
2022/04/15 13:01:23;;;;;;;3.05;1.67;;;;;;;;;;5038617;28;20081;-74
2022/04/15 13:03:50;;;;;;;4.30;1.90;;;;;;;;;;5039614;28;20053;-73
2022/04/15 13:06:17;;;;;;;3.20;1.80;;;;;;;;;;5040118;28;20378;-74
2022/04/15 13:08:50;;;;;;;3.80;1.90;;;;;;;;;;5039677;28;20088;-74
2022/04/15 13:11:16;;;;;;;4.72;2.13;;;;;;;;;;5042917;28;20140;-75
2022/04/15 13:13:43;;;;;;;4.97;2.03;;;;;;;;;;5038701;28;20080;-74
2022/04/15 13:16:15;;;;;;;1.98;1.38;;;;;;;;;;5038164;28;20057;-73
2022/04/15 13:18:41;;;;;;;9.02;2.25;;;;;;;;;;5037754;28;20163;-73
2022/04/15 13:21:09;;;;;;;3.88;1.83;;;;;;;;;;5039126;28;20130;-74
2022/04/15 13:23:35;;;;;;;4.47;1.90;;;;;;;;;;5039344;28;20136;-74
2022/04/15 13:26:02;;;;;;;1.92;1.25;;;;;;;;;;5036955;28;20496;-74
2022/04/15 13:28:28;;;;;;;3.85;1.90;;;;;;;;;;5039460;28;20057;-74
2022/04/15 13:31:01;;;;;;;3.25;1.67;;;;;;;;;;5040103;28;20091;-73
2022/04/15 13:33:28;;;;;;;2.20;1.50;;;;;;;;;;5037961;28;20137;-74
2022/04/15 13:35:54;;;;;;;5.13;2.35;;;;;;;;;;5040651;28;20132;-75
2022/04/15 13:38:22;;;;;;;3.70;2.03;;;;;;;;;;5039911;28;20141;-73
2022/04/15 13:40:48;;;;;;;3.83;1.75;;;;;;;;;;5038693;28;20099;-73
2022/04/15 13:43:15;;;;;;;3.78;1.63;;;;;;;;;;5040165;28;20053;-74
2022/04/15 13:45:48;;;;;;;3.40;1.85;;;;;;;;;;5035642;28;20093;-73
2022/04/15 13:48:15;;;;;;;3.25;1.75;;;;;;;;;;5039998;28;20128;-73
2022/04/15 13:50:42;;;;;;;3.85;1.77;;;;;;;;;;5040985;28;20139;-73
2022/04/15 13:58:39;;;;;;;3.03;1.52;;;;;;;;;;5044490;28;20139;-74
2022/04/15 14:01:23;;;;;;;2.00;1.48;;;;;;;;;;5038725;28;20053;-74
2022/04/15 14:03:54;;;;;;;4.90;1.63;;;;;;;;;;5042966;28;20064;-74
2022/04/15 14:06:21;;;;;;;2.38;1.52;;;;;;;;;;5046016;28;20091;-73
2022/04/15 14:08:47;;;;;;;5.25;1.70;;;;;;;;;;5039872;28;20418;-73
2022/04/15 14:11:14;;;;;;;2.95;1.83;;;;;;;;;;5042905;28;20081;-73
2022/04/15 14:13:43;;;;;;;3.70;1.50;;;;;;;;;;5044987;28;20135;-73
2022/04/15 14:16:10;;;;;;;;;;;;;;;;;;5039124;28;20623;-73
2022/04/15 14:18:36;;;;;;;2.08;1.35;;;;;;;;;;5031398;28;20020;-73
2022/04/15 14:21:05;;;;;;;3.75;1.83;;;;;;;;;;5040543;28;20128;-73
2022/04/15 14:23:31;;;;;;;2.25;1.60;;;;;;;;;;5040807;28;20056;-73
2022/04/15 14:25:58;;;;;;;3.30;1.90;;;;;;;;;;5045596;28;20087;-73
2022/04/15 14:28:26;;;;;;;1.77;1.40;;;;;;;;;;5044806;28;20096;-73
2022/04/15 14:30:53;;;;;;;2.90;1.13;;;;;;;;;;5041660;28;20199;-73
2022/04/15 14:33:19;;;;;;;2.33;1.55;;;;;;;;;;5037256;28;20143;-73
2022/04/15 14:35:48;;;;;;;4.97;1.92;;;;;;;;;;5040930;28;20473;-73
2022/04/15 14:38:15;;;;;;;2.33;1.52;;;;;;;;;;5044863;28;20159;-73
2022/04/15 14:40:41;;;;;;;2.45;1.30;;;;;;;;;;5039087;28;20141;-73
2022/04/15 14:43:14;;;;;;;5.68;1.60;;;;;;;;;;5042729;28;20147;-73
2022/04/15 14:45:40;;;;;;;1.75;1.30;;;;;;;;;;5041665;28;20140;-73
2022/04/15 14:48:07;;;;;;;2.63;1.40;;;;;;;;;;5042735;28;20055;-73
2022/04/15 14:50:34;;;;;;;3.72;1.45;;;;;;;;;;5041528;28;20140;-73
2022/04/15 14:53:00;;;;;;;2.10;1.20;;;;;;;;;;5043454;28;20136;-73
2022/04/15 14:55:27;;;;;;;2.33;1.25;;;;;;;;;;5039409;28;20053;-73
2022/04/15 14:58:00;;;;;;;3.60;1.73;;;;;;;;;;5039822;28;20182;-73
2022/04/15 15:00:27;;;;;;;2.63;1.33;;;;;;;;;;5041533;28;20135;-72